Time;durP1;ratioP1;P1;durP2;ratioP2;P2;SDS_P1;SDS_P2;PMS_P1;PMS_P2;Temp;Humidity;BMP_temperature;BMP_pressure;BME280_temperature;BME280_humidity;BME280_pressure;Samples;Min_cycle;Max_cycle;Signal;HPM_P1;HPM_P2
2023/03/08 00:18:55;;;;;;;10.37;7.90;;;;;;;6.42;51.03;94314.72;4977245;28;21345;-90
2023/03/08 00:24:22;;;;;;;10.17;7.20;;;;;;;6.39;51.23;94307.41;4990238;28;20246;-91
2023/03/08 00:27:11;;;;;;;9.30;7.53;;;;;;;6.32;51.34;94310.91;4995047;28;20619;-91
2023/03/08 00:29:47;;;;;;;10.07;7.33;;;;;;;6.21;51.25;94304.47;4990618;28;20318;-90
2023/03/08 00:32:29;;;;;;;10.30;8.13;;;;;;;6.28;51.40;94302.00;4990904;28;20206;-90
2023/03/08 00:35:04;;;;;;;9.57;7.57;;;;;;;6.33;51.43;94305.59;4991170;28;20206;-91
2023/03/08 00:37:53;;;;;;;10.27;7.47;;;;;;;6.22;51.37;94311.19;4990062;28;20203;-91
2023/03/08 00:40:22;;;;;;;9.03;7.07;;;;;;;6.21;51.38;94299.38;4979390;28;20284;-90
2023/03/08 00:42:53;;;;;;;10.53;7.13;;;;;;;6.30;50.95;94305.19;4973431;28;20235;-91
2023/03/08 00:45:33;;;;;;;8.70;6.67;;;;;;;6.27;51.04;94298.66;4977129;28;20270;-91
2023/03/08 00:48:11;;;;;;;9.27;6.77;;;;;;;6.33;50.74;94307.38;4990521;28;20242;-90
2023/03/08 00:50:50;;;;;;;10.23;7.53;;;;;;;6.26;50.94;94301.41;4990517;28;20227;-91
2023/03/08 00:54:01;;;;;;;;;;;;;;;;;;;;;
2023/03/08 00:56:45;;;;;;;9.67;7.37;;;;;;;6.20;50.63;94310.56;4990430;28;20207;-91
2023/03/08 00:59:12;;;;;;;9.47;7.03;;;;;;;6.21;50.77;94304.47;4990592;28;20230;-91
2023/03/08 01:01:50;;;;;;;8.80;7.10;;;;;;;6.21;50.76;94307.84;4980116;28;20208;-90
2023/03/08 01:04:35;;;;;;;9.10;7.20;;;;;;;6.17;50.65;94311.72;4977162;28;20689;-91
2023/03/08 01:07:07;;;;;;;8.93;7.03;;;;;;;6.27;50.63;94308.88;4990078;28;20203;-91
2023/03/08 01:10:04;;;;;;;8.77;6.87;;;;;;;6.33;50.56;94308.16;4990205;28;20681;-90
2023/03/08 01:12:45;;;;;;;10.03;7.27;;;;;;;6.27;50.74;94302.97;4989134;28;20191;-90
2023/03/08 01:15:18;;;;;;;9.23;7.07;;;;;;;6.33;50.24;94309.94;4981885;28;20188;-91
2023/03/08 01:17:46;;;;;;;8.07;6.80;;;;;;;6.17;50.64;94303.25;5034166;22;20219;-91
2023/03/08 01:20:25;;;;;;;8.33;6.70;;;;;;;6.18;50.77;94297.97;4989417;28;20203;-91
2023/03/08 01:22:56;;;;;;;8.80;6.63;;;;;;;6.18;50.50;94292.06;4989992;28;20207;-91
2023/03/08 01:25:53;;;;;;;9.03;6.50;;;;;;;6.12;50.50;94298.72;4995126;28;20226;-90
2023/03/08 01:28:41;;;;;;;8.33;6.77;;;;;;;6.15;50.60;94307.78;4984364;28;20250;-90
2023/03/08 01:34:09;;;;;;;10.97;6.67;;;;;;;6.17;50.47;94295.59;4989518;28;20307;-90
2023/03/08 01:36:56;;;;;;;8.60;6.53;;;;;;;6.16;50.44;94305.03;4990309;28;20207;-90
2023/03/08 01:39:25;;;;;;;8.97;7.10;;;;;;;6.14;50.83;94301.88;4986638;28;20223;-91
2023/03/08 01:41:55;;;;;;;7.70;6.47;;;;;;;6.04;51.04;94303.13;4969817;28;20200;-91
2023/03/08 01:45:04;;;;;;;8.13;7.20;;;;;;;6.04;51.03;94311.59;4970145;28;20324;-90
2023/03/08 01:47:35;;;;;;;8.63;6.40;;;;;;;6.08;50.75;94305.16;4950306;28;20205;-91
2023/03/08 01:50:09;;;;;;;10.23;7.60;;;;;;;6.04;51.17;94296.25;4952391;29;20308;-92
2023/03/08 01:52:58;;;;;;;9.00;7.00;;;;;;;5.94;51.04;94290.66;4950964;29;20294;-91
2023/03/08 01:55:28;;;;;;;9.07;6.70;;;;;;;5.88;51.08;94281.94;4949847;28;20201;-91
2023/03/08 01:58:14;;;;;;;11.53;6.83;;;;;;;5.91;51.13;94275.69;4950724;29;20857;-90
2023/03/08 02:01:19;;;;;;;9.20;7.23;;;;;;;5.93;50.98;94265.28;4953621;28;20208;-91
2023/03/08 02:04:07;;;;;;;8.47;6.60;;;;;;;5.85;51.42;94266.16;4987771;28;20199;-91
2023/03/08 02:06:44;;;;;;;8.80;6.80;;;;;;;5.89;51.24;94265.66;4969279;28;20207;-91
2023/03/08 02:09:29;;;;;;;8.37;7.27;;;;;;;5.79;51.98;94261.75;4969438;28;20292;-90
2023/03/08 02:12:24;;;;;;;9.10;6.80;;;;;;;5.83;51.39;94255.31;4969372;28;20223;-90
2023/03/08 02:14:57;;;;;;;8.63;6.77;;;;;;;5.87;51.84;94259.09;4950622;29;20260;-91
2023/03/08 02:17:40;;;;;;;;;;;;;;;;;;;;;
2023/03/08 02:20:20;;;;;;;9.60;6.87;;;;;;;5.87;51.64;94257.34;4963141;28;20220;-90
2023/03/08 02:22:54;;;;;;;8.33;6.70;;;;;;;5.87;51.95;94246.31;4969436;28;20203;-91
2023/03/08 02:25:28;;;;;;;9.37;7.13;;;;;;;5.82;51.95;94254.53;4969534;28;20290;-91
2023/03/08 02:28:00;;;;;;;8.27;6.87;;;;;;;5.79;52.07;94247.22;4969179;28;20223;-90
2023/03/08 02:30:49;;;;;;;10.17;7.30;;;;;;;5.70;52.51;94244.97;4969776;28;20204;-90
2023/03/08 02:33:18;;;;;;;9.67;7.20;;;;;;;5.55;52.63;94255.22;4969517;28;20212;-91
2023/03/08 02:35:45;;;;;;;8.50;6.80;;;;;;;5.51;52.74;94244.56;4968986;28;20204;-90
2023/03/08 02:38:23;;;;;;;12.43;7.23;;;;;;;5.47;52.83;94243.31;4969476;28;20224;-91
2023/03/08 02:40:55;;;;;;;8.00;6.73;;;;;;;5.43;53.08;94238.75;4968932;28;20263;-91
2023/03/08 02:43:30;;;;;;;8.60;7.43;;;;;;;5.49;53.00;94235.50;4969383;28;20200;-91
2023/03/08 02:48:45;;;;;;;11.13;7.23;;;;;;;5.55;52.72;94229.69;4961254;28;20315;-90
2023/03/08 02:51:19;;;;;;;8.70;6.60;;;;;;;5.55;52.97;94229.69;4969423;28;20220;-90
2023/03/08 02:54:00;;;;;;;10.10;7.10;;;;;;;5.50;53.02;94232.75;4971234;28;20200;-91
2023/03/08 03:00:15;;;;;;;8.63;7.70;;;;;;;5.62;52.80;94232.28;4912326;29;20206;-90
2023/03/08 03:02:44;;;;;;;10.00;7.37;;;;;;;5.57;53.07;94232.06;4890658;29;20210;-90
2023/03/08 03:05:21;;;;;;;9.67;7.20;;;;;;;5.50;53.37;94230.22;4951997;28;20255;-90
2023/03/08 03:07:59;;;;;;;9.60;7.10;;;;;;;5.50;53.06;94226.88;4969527;28;20638;-91
2023/03/08 03:10:58;;;;;;;8.53;7.40;;;;;;;5.53;53.53;94224.75;4972063;28;20282;-90
2023/03/08 03:16:19;;;;;;;9.67;7.40;;;;;;;5.46;53.50;94230.75;4961839;28;20211;-92
2023/03/08 03:19:04;;;;;;;9.73;7.80;;;;;;;5.57;53.05;94226.94;4972045;28;20236;-90
2023/03/08 03:21:36;;;;;;;9.03;7.13;;;;;;;5.47;53.36;94224.66;4986803;28;20285;-90
2023/03/08 03:24:25;;;;;;;9.67;7.60;;;;;;;5.53;53.37;94226.50;4991822;28;20661;-91
2023/03/08 03:26:54;;;;;;;9.73;7.83;;;;;;;5.55;53.18;94222.81;4991884;28;20219;-90
2023/03/08 03:29:25;;;;;;;9.40;7.17;;;;;;;5.57;53.14;94212.44;4991171;28;20234;-90
2023/03/08 03:32:19;;;;;;;9.57;7.87;;;;;;;5.55;53.46;94212.59;4991326;28;20207;-90
2023/03/08 03:34:55;;;;;;;8.13;6.97;;;;;;;5.57;52.99;94216.75;4991461;28;20266;-91
2023/03/08 03:37:22;;;;;;;10.27;7.40;;;;;;;5.60;53.34;94217.16;4973989;28;20208;-91
2023/03/08 03:39:53;;;;;;;10.03;7.23;;;;;;;5.52;53.46;94214.72;4971858;28;20565;-91
2023/03/08 03:42:21;;;;;;;9.60;7.40;;;;;;;5.59;53.28;94210.47;4971319;28;20206;-90
2023/03/08 03:44:57;;;;;;;9.60;7.70;;;;;;;5.65;53.23;94214.84;4971573;28;20226;-91
2023/03/08 03:47:31;;;;;;;9.73;7.67;;;;;;;5.70;52.89;94201.56;4972510;28;20207;-91
2023/03/08 03:50:00;;;;;;;9.97;7.47;;;;;;;5.73;53.09;94208.88;4972012;28;20255;-90
2023/03/08 03:52:29;;;;;;;9.27;7.53;;;;;;;5.73;53.27;94193.53;4972096;28;20248;-91
2023/03/08 03:55:16;;;;;;;11.50;8.07;;;;;;;5.75;53.15;94205.16;4971980;28;20204;-90
2023/03/08 03:57:55;;;;;;;11.00;7.67;;;;;;;5.77;53.02;94197.31;4972079;28;20231;-90
2023/03/08 04:00:35;;;;;;;9.93;7.53;;;;;;;5.71;53.13;94200.59;4971385;28;20200;-90
2023/03/08 04:03:19;;;;;;;9.83;7.97;;;;;;;5.71;53.15;94201.38;4971817;28;20287;-90
2023/03/08 04:08:29;;;;;;;10.50;8.00;;;;;;;5.76;53.14;94191.44;4965114;28;20231;-90
2023/03/08 04:11:05;;;;;;;9.37;7.67;;;;;;;5.80;53.05;94191.81;4971148;28;20231;-91
2023/03/08 04:13:34;;;;;;;11.10;7.97;;;;;;;5.83;53.00;94191.47;4970811;28;20204;-90
2023/03/08 04:16:23;;;;;;;10.43;8.20;;;;;;;5.81;52.87;94194.19;4971598;28;20211;-91
2023/03/08 04:19:17;;;;;;;10.57;8.23;;;;;;;5.83;53.11;94187.16;4971351;28;20243;-90
2023/03/08 04:24:33;;;;;;;9.60;7.87;;;;;;;5.88;52.65;94184.06;4987835;28;20664;-91
2023/03/08 04:27:09;;;;;;;11.17;8.67;;;;;;;5.91;52.89;94172.72;4990935;28;20208;-91
2023/03/08 04:32:18;;;;;;;9.80;7.80;;;;;;;5.88;53.09;94172.13;4983535;28;20613;-91
2023/03/08 04:34:50;;;;;;;11.23;7.97;;;;;;;5.87;53.09;94159.50;4971156;28;20845;-90
2023/03/08 04:37:37;;;;;;;9.03;8.00;;;;;;;5.86;52.89;94155.34;4971340;28;20197;-91
2023/03/08 04:40:24;;;;;;;;;;;;;;;;;;;;;
2023/03/08 04:42:53;;;;;;;10.70;7.93;;;;;;;5.79;53.31;94157.06;4971392;28;20219;-91
2023/03/08 04:45:28;;;;;;;10.47;7.90;;;;;;;5.79;53.35;94154.50;4970740;28;20196;-91
2023/03/08 04:48:16;;;;;;;9.20;7.73;;;;;;;5.75;53.79;94145.66;4971185;28;20266;-91
2023/03/08 04:51:15;;;;;;;10.37;7.57;;;;;;;5.71;53.68;94139.31;4953028;28;20235;-91
2023/03/08 04:53:49;;;;;;;10.20;8.23;;;;;;;5.63;53.98;94131.75;4970785;28;20608;-90
2023/03/08 04:56:27;;;;;;;9.37;8.10;;;;;;;5.49;54.41;94128.28;4971176;28;20628;-92
2023/03/08 04:58:56;;;;;;;10.40;7.80;;;;;;;5.47;54.22;94120.81;4970734;28;20643;-90
2023/03/08 05:01:28;;;;;;;11.20;7.63;;;;;;;5.50;54.08;94125.56;4969938;28;20296;-90
2023/03/08 05:03:56;;;;;;;10.60;7.90;;;;;;;5.55;54.25;94122.47;4970800;28;20207;-91
2023/03/08 05:06:34;;;;;;;9.43;7.83;;;;;;;5.50;54.50;94123.00;4970387;28;20208;-90
2023/03/08 05:09:10;;;;;;;13.03;8.50;;;;;;;5.50;54.15;94115.34;4970663;28;20254;-90
2023/03/08 05:11:36;;;;;;;11.27;8.40;;;;;;;5.51;54.60;94104.19;4969906;28;20219;-91
2023/03/08 05:14:20;;;;;;;11.07;8.63;;;;;;;5.51;54.36;94103.38;4969842;28;20228;-90
2023/03/08 05:17:19;;;;;;;;;;;;;;;;;;;;;
2023/03/08 05:20:07;;;;;;;11.07;9.13;;;;;;;5.49;54.48;94095.91;4964141;28;20218;-90
2023/03/08 05:22:33;;;;;;;12.37;8.90;;;;;;;5.52;54.55;94080.22;4990369;28;20211;-91
2023/03/08 05:25:15;;;;;;;12.53;8.60;;;;;;;5.56;54.54;94085.78;4989748;28;20207;-90
2023/03/08 05:27:57;;;;;;;13.30;9.10;;;;;;;5.54;54.70;94078.28;4989665;28;20838;-91
2023/03/08 05:30:39;;;;;;;11.70;9.30;;;;;;;5.46;55.21;94080.94;4969270;28;20659;-91
2023/03/08 05:33:07;;;;;;;13.50;8.70;;;;;;;5.47;55.23;94087.63;4969597;28;20208;-91
2023/03/08 05:35:41;;;;;;;12.27;9.63;;;;;;;5.47;55.37;94076.63;4970916;28;20717;-90
2023/03/08 05:38:09;;;;;;;12.37;9.53;;;;;;;5.49;55.19;94082.34;4971131;28;20216;-90
2023/03/08 05:40:39;;;;;;;12.40;8.43;;;;;;;5.55;54.98;94081.63;4969671;28;20199;-90
2023/03/08 05:43:09;;;;;;;12.27;9.83;;;;;;;5.54;55.26;94067.28;4969536;28;20247;-91
2023/03/08 05:45:35;;;;;;;14.47;9.03;;;;;;;5.47;55.72;94067.22;4969517;28;20262;-90
2023/03/08 05:48:02;;;;;;;13.60;8.77;;;;;;;5.42;55.80;94066.19;4969645;28;20656;-90
2023/03/08 05:50:36;;;;;;;12.60;9.17;;;;;;;5.39;55.62;94066.53;4969591;28;20621;-91
2023/03/08 05:53:07;;;;;;;12.53;9.43;;;;;;;5.32;56.23;94058.84;4969875;28;20692;-91
2023/03/08 05:55:34;;;;;;;13.10;9.73;;;;;;;5.39;55.56;94062.22;4969254;28;20216;-91
2023/03/08 05:58:29;;;;;;;13.00;8.40;;;;;;;5.38;56.43;94070.09;4969250;28;20231;-91
2023/03/08 06:01:00;;;;;;;11.40;8.07;;;;;;;5.43;56.05;94065.22;4957163;28;20191;-91
2023/03/08 06:03:28;;;;;;;13.53;9.40;;;;;;;5.45;55.80;94058.16;4988840;28;20542;-90
2023/03/08 06:06:13;;;;;;;11.33;9.47;;;;;;;5.39;56.55;94063.97;4950489;28;20295;-90
2023/03/08 06:08:46;;;;;;;13.47;9.57;;;;;;;5.45;56.39;94065.81;4949773;29;20299;-91
2023/03/08 06:11:15;;;;;;;12.33;9.77;;;;;;;5.50;56.38;94058.41;4950551;28;20745;-92
2023/03/08 06:13:47;;;;;;;13.67;10.17;;;;;;;5.55;56.21;94061.22;4965901;28;20203;-91
2023/03/08 06:16:25;;;;;;;13.87;9.67;;;;;;;5.51;56.60;94055.69;4969551;28;20264;-91
2023/03/08 06:19:12;;;;;;;12.97;10.13;;;;;;;5.48;56.89;94056.03;4969945;28;20302;-91
2023/03/08 06:21:43;;;;;;;14.97;10.40;;;;;;;5.51;56.74;94055.69;4987774;28;20719;-90
2023/03/08 06:24:11;;;;;;;13.60;9.80;;;;;;;5.60;56.80;94058.09;4988202;28;20211;-92
2023/03/08 06:26:40;;;;;;;13.53;10.13;;;;;;;5.62;56.47;94062.03;4969853;28;20208;-91
2023/03/08 06:29:11;;;;;;;14.27;10.47;;;;;;;5.65;56.90;94056.56;4969111;28;20278;-91
2023/03/08 06:31:37;;;;;;;15.03;10.67;;;;;;;5.69;57.12;94051.91;4972148;28;20227;-90
2023/03/08 06:34:14;;;;;;;15.07;11.07;;;;;;;5.82;56.70;94060.44;4971894;28;20277;-92
2023/03/08 06:36:50;;;;;;;15.07;10.80;;;;;;;5.95;56.49;94066.69;4969077;28;20200;-92
2023/03/08 06:39:19;;;;;;;15.20;11.33;;;;;;;5.98;56.61;94064.50;4970567;28;20232;-91
2023/03/08 06:41:54;;;;;;;17.00;11.97;;;;;;;5.95;57.92;94070.03;4971836;28;20227;-90
2023/03/08 06:44:31;;;;;;;16.77;11.53;;;;;;;6.01;57.21;94064.16;4974152;28;20242;-91
2023/03/08 06:50:36;;;;;;;18.40;10.43;;;;;;;6.03;56.91;94071.63;4953915;28;20310;-91
2023/03/08 06:53:12;;;;;;;13.83;10.33;;;;;;;6.04;56.38;94068.09;4973251;28;20218;-91
2023/03/08 06:55:52;;;;;;;14.33;10.93;;;;;;;6.10;56.47;94072.47;4973885;28;20298;-91
2023/03/08 07:01:08;;;;;;;14.60;10.73;;;;;;;6.17;56.73;94070.75;4971628;28;20906;-90
2023/03/08 07:07:12;;;;;;;;;;;;;;;;;;;;;
2023/03/08 07:12:38;;;;;;;14.70;10.10;;;;;;;6.21;56.69;94071.94;4964375;28;20333;-90
2023/03/08 07:15:19;;;;;;;18.87;10.73;;;;;;;6.21;56.86;94066.84;4992284;28;20195;-91
2023/03/08 07:17:49;;;;;;;13.50;10.20;;;;;;;6.26;56.74;94074.75;4991709;28;20241;-90
2023/03/08 07:20:24;;;;;;;15.37;10.77;;;;;;;6.31;57.16;94079.31;4990621;28;20203;-90
2023/03/08 07:23:00;;;;;;;13.27;10.20;;;;;;;6.30;56.73;94083.63;4972005;28;20580;-91
2023/03/08 07:25:26;;;;;;;15.03;10.90;;;;;;;6.39;56.27;94092.72;4972152;28;20239;-91
2023/03/08 07:28:19;;;;;;;19.80;11.60;;;;;;;6.38;56.78;94093.69;4971560;28;20686;-91
2023/03/08 07:30:55;;;;;;;13.80;10.40;;;;;;;6.45;56.07;94083.50;4970076;28;20307;-91
2023/03/08 07:36:45;;;;;;;13.83;10.10;;;;;;;6.53;55.76;94071.38;4949039;28;20216;-91
2023/03/08 07:43:03;;;;;;;16.50;10.97;;;;;;;6.66;55.79;94077.53;4895469;29;20292;-91
2023/03/08 07:45:36;;;;;;;14.00;9.83;;;;;;;6.67;55.25;94072.22;4967356;28;20195;-90
2023/03/08 07:48:19;;;;;;;14.80;10.37;;;;;;;6.75;55.35;94073.81;4990943;28;20245;-91
2023/03/08 07:50:45;;;;;;;13.50;10.23;;;;;;;6.82;55.58;94072.88;4990937;28;20330;-92
2023/03/08 07:57:30;;;;;;;13.73;9.93;;;;;;;6.85;54.99;94052.03;4890150;29;20260;-91
2023/03/08 08:00:18;;;;;;;14.27;10.27;;;;;;;6.72;55.60;94043.53;4919977;29;20880;-91
2023/03/08 08:03:08;;;;;;;16.93;9.97;;;;;;;6.75;55.62;94035.44;4957414;28;20283;-91
2023/03/08 08:06:04;;;;;;;13.13;9.73;;;;;;;6.68;56.40;94024.44;4987740;28;20197;-91
2023/03/08 08:08:58;;;;;;;13.07;9.87;;;;;;;6.80;55.57;94030.56;4987680;28;20540;-91
2023/03/08 08:11:24;;;;;;;14.80;9.57;;;;;;;6.73;55.62;94022.09;4980277;28;20235;-91
2023/03/08 08:14:23;;;;;;;15.43;10.20;;;;;;;6.81;55.75;94007.34;4989590;28;20246;-90
2023/03/08 08:17:13;;;;;;;14.37;10.20;;;;;;;7.00;55.53;94005.03;4990410;28;20383;-91
2023/03/08 08:19:39;;;;;;;12.80;9.87;;;;;;;7.14;54.60;94001.53;4988998;28;20282;-91
2023/03/08 08:22:26;;;;;;;14.83;9.73;;;;;;;7.19;54.69;93991.50;4989564;28;20203;-92
2023/03/08 08:24:58;;;;;;;14.30;10.43;;;;;;;7.28;54.75;93988.56;4990763;28;20200;-91
2023/03/08 08:27:26;;;;;;;12.67;9.47;;;;;;;7.18;54.51;93982.25;4990010;28;20204;-92
2023/03/08 08:29:56;;;;;;;13.10;9.83;;;;;;;7.16;54.74;93985.00;4990310;28;20403;-91
2023/03/08 08:32:27;;;;;;;12.97;9.83;;;;;;;7.03;54.87;93979.06;4989644;28;20318;-91
2023/03/08 08:34:57;;;;;;;11.17;8.90;;;;;;;6.85;54.84;93972.75;4989991;28;20203;-90
2023/03/08 08:37:31;;;;;;;11.90;9.50;;;;;;;6.89;55.10;93950.13;4990074;28;20210;-91
2023/03/08 08:40:16;;;;;;;12.17;9.73;;;;;;;6.83;54.67;93938.91;4989829;28;20195;-91
2023/03/08 08:42:43;;;;;;;12.43;8.90;;;;;;;6.80;54.38;93934.16;4990322;28;20219;-91
2023/03/08 08:45:15;;;;;;;12.73;9.07;;;;;;;6.87;54.58;93934.19;4990308;28;20207;-90
2023/03/08 08:48:05;;;;;;;11.20;8.93;;;;;;;6.82;54.99;93913.50;4994216;28;20207;-91
2023/03/08 08:50:51;;;;;;;13.33;9.23;;;;;;;6.79;54.68;93907.00;4990640;28;20286;-90
2023/03/08 08:53:38;;;;;;;11.37;9.53;;;;;;;6.77;55.16;93900.50;4991404;28;20290;-91
2023/03/08 08:56:46;;;;;;;11.30;9.37;;;;;;;6.86;55.31;93887.34;4990929;28;20281;-91
2023/03/08 08:59:42;;;;;;;10.30;8.60;;;;;;;6.87;55.02;93901.72;4988469;28;20289;-91
2023/03/08 09:02:26;;;;;;;14.43;9.60;;;;;;;6.92;54.60;93886.59;5003705;28;20249;-91
2023/03/08 09:05:12;;;;;;;12.50;9.20;;;;;;;6.96;54.83;93888.72;4998013;28;20231;-91
2023/03/08 09:08:08;;;;;;;15.40;9.13;;;;;;;7.06;54.63;93878.91;4995281;28;20604;-91
2023/03/08 09:13:25;;;;;;;14.50;9.47;;;;;;;7.08;54.26;93867.50;4991355;28;20219;-91
2023/03/08 09:21:34;;;;;;;10.93;9.07;;;;;;;7.02;54.11;93858.03;4963355;28;20212;-91
2023/03/08 09:27:05;;;;;;;13.03;8.73;;;;;;;7.13;54.11;93844.63;4969526;28;20239;-90
2023/03/08 09:32:28;;;;;;;13.70;9.07;;;;;;;7.30;53.76;93839.94;4994257;28;20751;-90
2023/03/08 09:35:15;;;;;;;10.70;9.03;;;;;;;7.33;53.65;93843.84;4995632;28;20196;-91
2023/03/08 09:38:06;;;;;;;11.07;8.93;;;;;;;7.37;53.81;93845.00;4995145;28;20211;-91
2023/03/08 09:47:32;;;;;;;11.20;9.30;;;;;;;7.51;52.87;93828.63;4899376;28;20208;-90
2023/03/08 09:50:27;;;;;;;13.90;10.37;;;;;;;7.59;52.65;93836.09;4970125;28;20211;-91
2023/03/08 09:53:19;;;;;;;12.63;9.60;;;;;;;7.58;52.83;93821.72;4970222;28;20219;-91
2023/03/08 09:59:39;;;;;;;;;;;;;;;;;;;;;
2023/03/08 10:02:31;;;;;;;13.83;9.60;;;;;;;8.13;52.31;93817.00;4862226;29;20206;-90
2023/03/08 10:05:33;;;;;;;12.27;9.53;;;;;;;8.16;52.19;93807.13;4996971;28;20218;-90
2023/03/08 10:12:17;;;;;;;16.33;10.10;;;;;;;8.03;51.97;93822.56;4970844;28;20228;-91
2023/03/08 10:17:52;;;;;;;12.87;9.90;;;;;;;8.08;51.63;93816.84;4971005;28;20207;-90
2023/03/08 10:23:52;;;;;;;11.73;9.30;;;;;;;8.15;51.86;93803.00;4968641;28;20577;-90
2023/03/08 10:26:48;;;;;;;12.33;9.67;;;;;;;8.23;51.92;93791.72;4909927;29;20214;-91
2023/03/08 10:29:37;;;;;;;16.33;10.80;;;;;;;8.28;51.63;93822.63;4925966;28;20228;-91
2023/03/08 10:32:32;;;;;;;;;;;;;;;;;;;;;
2023/03/08 10:35:09;;;;;;;14.00;10.40;;;;;;;8.43;52.07;93833.44;4969832;28;20200;-90
2023/03/08 10:37:40;;;;;;;16.23;10.33;;;;;;;8.47;51.56;93844.06;4963813;28;20904;-90
2023/03/08 10:40:15;;;;;;;14.97;11.50;;;;;;;8.45;52.16;93851.97;4970892;28;20314;-90
2023/03/08 10:42:59;;;;;;;12.80;9.87;;;;;;;8.53;51.70;93851.72;4970325;28;20222;-91
2023/03/08 10:45:27;;;;;;;16.93;10.33;;;;;;;8.45;54.15;93857.09;4969378;28;20220;-91
2023/03/08 10:48:20;;;;;;;14.93;11.07;;;;;;;8.46;55.48;93833.03;4969175;28;20290;-91
2023/03/08 10:54:32;;;;;;;11.53;8.03;;;;;;;8.62;55.90;93839.44;4966747;28;20704;-91
2023/03/08 10:57:26;;;;;;;11.77;6.57;;;;;;;8.59;56.67;93835.50;4963230;28;20208;-91
2023/03/08 11:03:19;;;;;;;11.17;6.73;;;;;;;8.58;57.74;93838.28;4948432;29;20197;-91
2023/03/08 11:06:17;;;;;;;7.37;5.97;;;;;;;8.65;57.86;93832.13;4967510;28;20205;-92
2023/03/08 11:09:29;;;;;;;;;;;;;;;;;;;;;
2023/03/08 11:15:38;;;;;;;12.03;8.17;;;;;;;8.35;56.15;93856.75;4948897;28;20216;-90
2023/03/08 11:18:53;;;;;;;;;;;;;;;;;;;;;
2023/03/08 11:27:53;;;;;;;6.67;5.37;;;;;;;8.16;63.92;93804.56;4950063;28;20551;-91
2023/03/08 11:30:47;;;;;;;5.93;4.30;;;;;;;8.20;65.08;93797.25;4952394;28;20205;-91
2023/03/08 11:33:59;;;;;;;5.17;4.43;;;;;;;8.17;67.38;93788.19;4971051;28;20249;-90
2023/03/08 11:36:43;;;;;;;4.00;3.60;;;;;;;8.17;68.45;93769.47;4909202;28;20204;-91
2023/03/08 11:39:52;;;;;;;4.10;3.70;;;;;;;8.16;69.21;93757.63;4971892;28;20244;-91
2023/03/08 11:42:44;;;;;;;3.90;3.30;;;;;;;8.21;69.71;93753.47;4971419;28;20197;-90
2023/03/08 11:45:47;;;;;;;5.53;3.70;;;;;;;8.20;69.21;93741.66;4971511;28;20196;-91
2023/03/08 11:49:09;;;;;;;5.20;4.00;;;;;;;8.20;69.28;93735.72;4970248;28;20259;-92
2023/03/08 11:51:51;;;;;;;6.07;4.63;;;;;;;8.24;68.70;93719.72;4971457;28;20207;-91
2023/03/08 11:54:55;;;;;;;7.63;5.10;;;;;;;8.22;66.80;93715.81;4970551;28;20215;-91
2023/03/08 12:00:28;;;;;;;5.80;5.20;;;;;;;8.43;65.51;93719.84;4969691;28;20302;-91
2023/03/08 12:02:59;;;;;;;6.60;4.97;;;;;;;8.53;65.13;93722.69;4962958;28;20239;-91
2023/03/08 12:05:48;;;;;;;7.27;5.70;;;;;;;8.58;64.84;93718.53;4971140;28;20208;-91
2023/03/08 12:08:32;;;;;;;5.70;4.73;;;;;;;8.58;63.56;93722.88;4931100;28;20355;-91
2023/03/08 12:11:22;;;;;;;7.27;5.23;;;;;;;8.68;62.92;93719.81;4970632;28;20416;-90
2023/03/08 12:17:03;;;;;;;7.77;5.43;;;;;;;8.94;62.87;93717.03;4951923;28;20575;-90
2023/03/08 12:20:05;;;;;;;8.10;5.47;;;;;;;9.07;62.20;93710.97;4951034;29;20228;-91
2023/03/08 12:22:55;;;;;;;6.50;5.30;;;;;;;9.08;61.45;93717.66;4951363;29;20204;-91
2023/03/08 12:34:31;;;;;;;4.67;4.20;;;;;;;9.30;60.74;93711.91;4945042;28;20292;-91
2023/03/08 12:37:12;;;;;;;5.93;4.53;;;;;;;9.41;60.79;93700.16;4970992;28;20208;-91
2023/03/08 12:40:04;;;;;;;6.73;4.20;;;;;;;9.54;60.06;93699.19;4970274;28;20311;-91
2023/03/08 12:43:03;;;;;;;5.50;4.20;;;;;;;9.68;59.74;93706.50;4959659;28;20222;-91
2023/03/08 12:45:40;;;;;;;4.80;4.10;;;;;;;9.76;59.46;93704.66;4970711;28;20860;-91
2023/03/08 12:48:39;;;;;;;;;;;;;;;;;;;;;
2023/03/08 12:57:32;;;;;;;6.60;3.87;;;;;;;9.99;60.64;93697.03;4948038;29;20205;-91
2023/03/08 13:03:03;;;;;;;4.40;3.17;;;;;;;10.12;62.40;93703.78;4960395;28;20303;-91
2023/03/08 13:05:52;;;;;;;3.20;2.07;;;;;;;10.21;63.54;93702.47;4967350;28;20721;-91
2023/03/08 13:11:37;;;;;;;;;;;;;;;;;;;;;
2023/03/08 13:17:39;;;;;;;1.30;1.20;;;;;;;10.69;64.68;93716.00;4995959;27;1523255;-91
2023/03/08 13:20:37;;;;;;;3.53;1.23;;;;;;;10.91;64.09;93710.28;4990934;28;20252;-91
2023/03/08 13:23:25;;;;;;;2.60;1.20;;;;;;;11.07;63.74;93704.47;5025037;28;20197;-91
2023/03/08 13:26:16;;;;;;;1.53;1.10;;;;;;;11.32;63.23;93689.53;5017990;28;20222;-92
2023/03/08 13:28:52;;;;;;;1.83;1.00;;;;;;;11.75;62.50;93698.59;5005582;28;20223;-91
2023/03/08 13:31:28;;;;;;;2.00;1.47;;;;;;;11.99;61.21;93694.94;5005225;28;20212;-90
2023/03/08 13:37:41;;;;;;;1.43;1.10;;;;;;;12.27;59.83;93670.91;5003987;28;20211;-91
2023/03/08 13:41:20;;;;;;;2.33;1.10;;;;;;;12.63;59.49;93703.22;5005759;28;20660;-92
2023/03/08 13:44:13;;;;;;;1.20;1.10;;;;;;;12.44;59.50;93701.91;4944263;28;20880;-92
2023/03/08 13:47:13;;;;;;;1.30;1.20;;;;;;;12.44;60.18;93713.00;4977322;28;20208;-91
2023/03/08 13:49:50;;;;;;;1.30;1.20;;;;;;;12.54;59.87;93709.78;5035022;28;20236;-91
2023/03/08 13:52:34;;;;;;;1.20;1.00;;;;;;;12.51;59.76;93725.72;5048635;28;20273;-91
2023/03/08 13:55:29;;;;;;;3.43;1.40;;;;;;;12.42;60.04;93691.03;5038101;28;20556;-91
2023/03/08 14:01:32;;;;;;;1.33;0.90;;;;;;;12.28;60.70;93695.72;5024121;28;20198;-92
2023/03/08 14:04:03;;;;;;;2.17;1.23;;;;;;;12.33;60.74;93698.34;5024415;28;20198;-91
2023/03/08 14:06:44;;;;;;;2.87;1.17;;;;;;;12.26;60.84;93712.44;5024863;28;20276;-91
2023/03/08 14:09:21;;;;;;;3.00;1.40;;;;;;;12.11;60.79;93679.44;5024222;28;20662;-92
2023/03/08 14:15:09;;;;;;;1.77;1.00;;;;;;;12.10;61.17;93677.84;5022145;28;20905;-92
2023/03/08 14:17:59;;;;;;;1.53;1.30;;;;;;;12.16;61.47;93687.22;5024679;28;20289;-91
2023/03/08 14:20:26;;;;;;;1.30;1.20;;;;;;;12.13;61.49;93699.81;5023626;28;20210;-89
2023/03/08 14:23:01;;;;;;;2.13;1.10;;;;;;;11.90;62.03;93682.66;5017010;28;20202;-91
2023/03/08 14:25:32;;;;;;;1.27;1.00;;;;;;;11.93;62.44;93679.63;5026494;28;20622;-90
2023/03/08 14:28:16;;;;;;;1.00;0.90;;;;;;;11.90;62.48;93690.41;5013444;28;20293;-91
2023/03/08 14:31:07;;;;;;;2.73;1.00;;;;;;;11.90;62.67;93688.59;5011380;28;20207;-92
2023/03/08 14:37:26;;;;;;;2.37;1.00;;;;;;;11.93;63.17;93695.84;5008075;28;20226;-91
2023/03/08 14:43:28;;;;;;;0.90;0.90;;;;;;;12.13;62.84;93658.53;5006848;28;20207;-92
2023/03/08 14:46:17;;;;;;;1.03;0.90;;;;;;;12.24;62.35;93684.28;5021329;28;20255;-91
2023/03/08 14:48:43;;;;;;;1.47;1.00;;;;;;;12.26;62.20;93676.31;5030274;28;20217;-90
2023/03/08 14:51:52;;;;;;;1.80;1.00;;;;;;;12.36;61.49;93684.97;5023000;28;20691;-91
2023/03/08 14:57:31;;;;;;;3.97;1.23;;;;;;;12.39;61.09;93661.28;5010732;28;20217;-90
2023/03/08 15:00:12;;;;;;;1.70;1.13;;;;;;;12.48;60.73;93651.38;5010834;28;20305;-91
2023/03/08 15:02:45;;;;;;;2.00;1.30;;;;;;;12.55;60.12;93640.88;5010511;28;20210;-91
2023/03/08 15:05:13;;;;;;;1.20;1.10;;;;;;;12.60;60.12;93640.97;4996805;28;20203;-89
2023/03/08 15:07:40;;;;;;;1.20;0.93;;;;;;;12.72;59.82;93631.31;4991221;28;20211;-90
2023/03/08 15:10:10;;;;;;;2.93;1.10;;;;;;;12.76;59.92;93622.84;4990141;28;20208;-89
2023/03/08 15:12:36;;;;;;;1.10;1.00;;;;;;;12.91;59.60;93618.91;4994239;28;20230;-89
2023/03/08 15:15:11;;;;;;;1.60;1.10;;;;;;;13.09;58.62;93611.66;5010173;28;20206;-89
2023/03/08 15:17:38;;;;;;;1.40;1.30;;;;;;;13.01;58.91;93619.84;5004887;28;20195;-89
2023/03/08 15:20:05;;;;;;;1.97;1.50;;;;;;;12.92;58.62;93605.75;5006869;28;20191;-89
2023/03/08 15:25:34;;;;;;;1.87;1.20;;;;;;;12.90;58.41;93599.25;5009109;28;20203;-91
2023/03/08 15:28:17;;;;;;;1.93;1.50;;;;;;;12.98;58.48;93591.13;5009282;28;20309;-91
2023/03/08 15:31:09;;;;;;;1.80;1.40;;;;;;;13.05;58.28;93595.09;5009224;28;20276;-91
2023/03/08 15:33:37;;;;;;;1.23;1.03;;;;;;;12.97;57.95;93610.22;5010125;28;20286;-90
2023/03/08 15:36:04;;;;;;;1.30;1.20;;;;;;;12.82;58.30;93600.47;5009623;28;20226;-89
2023/03/08 15:38:41;;;;;;;1.50;1.30;;;;;;;12.77;58.55;93590.84;5008369;28;20225;-90
2023/03/08 15:41:12;;;;;;;1.20;1.10;;;;;;;12.75;58.69;93598.06;5009389;28;20290;-91